Jackson, Montana
Current Conditions -  °F | °C
As of 2:53 AM on Tuesday 27 Jan 2015 (Local Time) from KDLN Reporting Station
Clear Clear  
Wind Chill: 28°   Ceiling: Unl
Heat Index: 36°   Visibility: 10mi
Dew Point: 26°   Wind: 12mph
Humidity: 67%   Direction: 190°S
Pressure: 30.1"   Gusts: NA
Location:  45.37°N, 113.41°W
Report Text: KDLN 270953Z AUTO 19010KT 10SM CLR 02/M03 A3010 RMK AO2 SLP177 T00221033
Loading
Personal Weather Stations






























Interactive Weather Map New forecast layout! Learn more

10-Day Weather Forecast

Advertisements
Track Severe Weather on mobile